createdAt,value
2018-08-16T03:19:26.898Z,98.71
2018-08-16T03:39:48.871Z,98.08
2018-08-16T03:41:39.825Z,98.75
2018-08-16T03:44:22.723Z,98.27
2018-08-16T03:52:40.722Z,98.85
2018-08-16T04:02:30.432Z,99.13
2018-08-16T04:03:32.112Z,99.13
2018-08-16T04:04:41.523Z,98.27
2018-08-16T04:05:31.900Z,97.51
2018-08-16T04:06:35.561Z,97.51
2018-08-16T04:07:33.916Z,97.13
2018-08-16T04:08:33.081Z,96.94
2018-08-16T04:09:32.480Z,97.80
2018-08-16T04:10:32.218Z,98.18
2018-08-16T04:11:33.834Z,98.75
2018-08-16T04:13:33.534Z,98.66
2018-08-16T04:14:33.415Z,99.42
2018-08-16T04:15:32.638Z,99.71
2018-08-16T04:16:43.050Z,99.71
2018-08-16T04:17:34.240Z,99.71
2018-08-16T04:18:31.719Z,99.61
2018-08-16T04:19:30.744Z,99.04
2018-08-16T04:20:31.738Z,99.32
2018-08-16T04:21:31.550Z,98.75
2018-08-16T04:22:32.047Z,99.42
2018-08-16T04:23:32.906Z,99.90
2018-08-16T04:24:32.206Z,99.71
2018-08-16T04:25:32.783Z,99.80
2018-08-16T04:29:15.818Z,98.94
2018-08-16T04:30:15.789Z,98.37
2018-08-16T04:31:14.283Z,97.71
2018-08-16T04:32:14.032Z,97.03
2018-08-16T04:33:17.238Z,97.42
2018-08-16T04:43:51.659Z,99.80
2018-08-16T04:57:31.343Z,97.03
2018-08-16T04:58:35.020Z,96.94
2018-08-16T04:59:32.071Z,97.32
2018-08-16T05:00:32.163Z,97.51
2018-08-16T05:01:33.534Z,96.94
2018-08-16T05:02:40.490Z,97.22
2018-08-16T05:03:46.150Z,96.84
2018-08-16T05:04:32.438Z,96.94
2018-08-16T05:05:33.493Z,97.32
2018-08-16T05:06:32.742Z,97.71
2018-08-16T05:07:35.643Z,97.51
2018-08-16T05:08:41.143Z,97.61
2018-08-16T05:17:18.072Z,97.61
2018-08-16T05:18:18.643Z,98.18
2018-08-16T05:19:18.706Z,98.47
2018-08-16T05:20:17.336Z,98.56
2018-08-16T05:21:18.157Z,98.37
2018-08-16T05:22:19.105Z,98.18
2018-08-16T05:23:18.534Z,98.66
2018-08-16T05:24:19.071Z,98.27
2018-08-16T05:25:19.534Z,98.37
2018-08-16T05:26:21.934Z,98.47
2018-08-16T05:27:18.229Z,98.27
2018-08-16T05:28:16.927Z,97.89
2018-08-16T05:29:17.153Z,98.27
2018-08-16T05:30:17.182Z,98.08
2018-08-16T05:31:17.359Z,98.61
2018-08-16T05:32:17.433Z,98.32
2018-08-16T05:33:17.570Z,98.52
2018-08-16T05:34:17.784Z,98.52
2018-08-16T05:35:18.042Z,98.42
2018-08-16T05:36:18.169Z,98.42
2018-08-16T05:37:18.442Z,98.61
2018-08-16T05:38:18.553Z,98.52
2018-08-16T05:39:18.738Z,98.52
2018-08-16T05:40:18.917Z,97.47
2018-08-16T05:41:19.071Z,97.75
2018-08-16T05:42:19.289Z,98.47
2018-08-16T05:43:19.368Z,97.99
2018-08-16T05:44:19.729Z,97.99
2018-08-16T05:45:19.634Z,97.80
2018-08-16T05:46:20.062Z,97.52
2018-08-16T05:47:20.020Z,96.94
2018-08-16T05:48:20.211Z,96.94
2018-08-16T05:49:20.447Z,97.23
2018-08-16T05:50:20.620Z,97.03
2018-08-16T05:51:20.779Z,97.08
2018-08-16T05:52:20.926Z,97.28
2018-08-16T05:53:21.324Z,96.51
2018-08-16T05:54:21.250Z,96.32
2018-08-16T05:55:21.652Z,96.13
2018-08-16T05:56:21.728Z,96.42
2018-08-16T05:57:22.069Z,96.22
2018-08-16T05:58:22.111Z,96.42
2018-08-16T05:59:22.187Z,96.18
2018-08-16T06:00:22.445Z,95.51
2018-08-16T06:01:22.629Z,96.27
2018-08-16T06:02:22.808Z,94.93
2018-08-16T06:03:27.709Z,95.51
2018-08-16T06:04:25.470Z,95.22
2018-08-16T06:05:23.273Z,94.93
2018-08-16T06:06:23.395Z,94.74
2018-08-16T06:07:23.639Z,94.84
2018-08-16T06:08:23.815Z,94.17
2018-08-16T06:09:24.018Z,94.36
2018-08-16T06:10:24.109Z,93.93
2018-08-16T06:11:24.177Z,93.64
2018-08-16T06:12:24.505Z,93.74
2018-08-16T06:13:24.770Z,94.02
2018-08-16T06:14:24.856Z,93.74
2018-08-16T06:15:25.002Z,92.97
2018-08-16T06:16:25.239Z,93.45
2018-08-16T06:17:25.208Z,93.69
2018-08-16T06:18:25.473Z,93.40
2018-08-16T06:19:25.659Z,93.59
2018-08-16T06:20:25.803Z,93.02
2018-08-16T06:21:26.051Z,93.69
2018-08-16T06:22:26.144Z,93.40
2018-08-16T06:23:26.327Z,92.73
2018-08-16T06:24:26.463Z,92.92
2018-08-16T06:25:26.629Z,93.02
2018-08-16T06:26:26.890Z,92.16
2018-08-16T06:27:26.967Z,92.30
2018-08-16T06:28:27.978Z,92.01
2018-08-16T06:29:27.219Z,91.63
2018-08-16T06:30:27.374Z,91.92
2018-08-16T06:31:27.713Z,91.92
2018-08-16T06:32:27.874Z,91.82
2018-08-16T06:33:28.061Z,91.72
2018-08-16T06:34:28.045Z,91.34
2018-08-16T06:35:28.309Z,90.62
2018-08-16T06:36:28.401Z,90.62
2018-08-16T06:37:28.522Z,90.23
2018-08-16T06:38:29.027Z,90.33
2018-08-16T06:39:28.951Z,90.43
2018-08-16T06:40:29.126Z,90.23
2018-08-16T06:41:29.273Z,90.00
2018-08-16T06:42:29.377Z,90.09
2018-08-16T06:43:29.585Z,89.80
2018-08-16T06:44:29.833Z,89.61
2018-08-16T06:45:29.994Z,89.23
2018-08-16T06:46:30.088Z,89.61
2018-08-16T06:47:30.356Z,89.80
2018-08-16T06:48:30.599Z,88.79
2018-08-16T06:49:30.666Z,88.37
2018-08-16T06:50:30.949Z,88.41
2018-08-16T06:51:31.003Z,87.45
2018-08-16T06:52:31.197Z,87.26
2018-08-16T06:53:31.378Z,86.68
2018-08-16T06:54:31.487Z,86.58
2018-08-16T06:55:31.747Z,86.92
2018-08-16T06:56:31.815Z,86.72
2018-08-16T06:57:32.098Z,86.05
2018-08-16T06:58:32.240Z,85.96
2018-08-16T06:59:32.385Z,85.58
2018-08-16T07:00:32.570Z,85.42
2018-08-16T07:01:32.682Z,85.52
2018-08-16T07:02:32.953Z,84.08
2018-08-16T07:03:33.144Z,83.16
2018-08-16T07:04:33.300Z,82.97
2018-08-16T07:05:33.501Z,82.59
2018-08-16T07:06:33.640Z,82.01
2018-08-16T07:07:33.822Z,82.05
2018-08-16T07:08:34.061Z,81.57
2018-08-16T07:09:34.197Z,81.09
2018-08-16T07:10:34.362Z,81.09
2018-08-16T07:11:35.361Z,80.61
2018-08-16T07:12:34.684Z,80.75
2018-08-16T07:13:34.821Z,80.17
2018-08-16T07:14:34.958Z,79.88
2018-08-16T07:15:35.063Z,79.98
2018-08-16T07:16:35.319Z,79.98
2018-08-16T07:17:35.594Z,80.02
2018-08-16T07:18:35.572Z,79.92
2018-08-16T07:19:35.865Z,78.67
2018-08-16T07:20:35.975Z,79.05
2018-08-16T07:21:36.211Z,79.53
2018-08-16T07:22:36.380Z,79.05
2018-08-16T07:23:36.496Z,78.23
2018-08-16T07:24:36.648Z,78.03
2018-08-16T07:25:36.805Z,78.03
2018-08-16T07:26:37.015Z,78.03
2018-08-16T07:27:37.190Z,77.56
2018-08-16T07:28:37.370Z,77.56
2018-08-16T07:29:37.545Z,76.73
2018-08-16T07:30:37.699Z,77.40
2018-08-16T07:31:37.853Z,77.11
2018-08-16T07:32:37.991Z,76.15
2018-08-16T07:33:38.206Z,76.38
2018-08-16T07:34:38.458Z,75.51
2018-08-16T07:35:38.559Z,74.84
2018-08-16T07:36:38.665Z,74.74
2018-08-16T07:37:38.954Z,74.30
2018-08-16T07:38:39.307Z,73.62
2018-08-16T07:39:39.279Z,73.33
2018-08-16T07:40:39.510Z,72.85
2018-08-16T07:41:39.599Z,72.56
2018-08-16T07:42:39.968Z,73.05
2018-08-16T07:43:40.031Z,72.75
2018-08-16T07:44:40.224Z,72.60
2018-08-16T07:45:40.392Z,72.21
2018-08-16T07:46:40.481Z,71.44
2018-08-16T07:47:40.695Z,70.22
2018-08-16T07:48:40.799Z,69.07
2018-08-16T07:49:41.066Z,69.16
2018-08-16T07:50:41.090Z,69.00
2018-08-16T07:51:41.385Z,67.27
2018-08-16T07:52:41.648Z,67.59
2018-08-16T07:53:41.599Z,67.78
2018-08-16T07:54:41.876Z,67.43
2018-08-16T07:55:41.983Z,66.78
2018-08-16T07:56:42.169Z,65.75
2018-08-16T07:57:42.365Z,64.31
2018-08-16T07:58:42.513Z,62.30
2018-08-16T07:59:42.641Z,62.53
2018-08-16T08:00:42.903Z,61.01
2018-08-16T08:01:43.031Z,59.36
2018-08-16T08:02:43.137Z,58.88
2018-08-16T08:03:43.351Z,57.78
2018-08-16T08:04:43.533Z,57.70
2018-08-16T08:05:43.685Z,57.22
2018-08-16T08:06:43.885Z,55.50
2018-08-16T08:07:44.167Z,54.27
2018-08-16T08:08:44.275Z,53.88
2018-08-16T08:09:44.433Z,53.00
2018-08-16T08:10:44.584Z,52.74
2018-08-16T08:11:44.781Z,52.84
2018-08-16T08:12:44.956Z,52.67
2018-08-16T08:13:45.104Z,51.89
2018-08-16T08:14:45.338Z,51.53
2018-08-16T08:15:46.271Z,51.04
2018-08-16T08:16:45.672Z,50.36
2018-08-16T08:17:45.891Z,50.56
2018-08-16T08:18:46.101Z,50.38
2018-08-16T08:19:46.196Z,48.95
2018-08-16T08:20:46.370Z,47.39
2018-08-16T08:21:46.465Z,47.52
2018-08-16T08:22:46.737Z,46.93
2018-08-16T08:23:46.910Z,45.68
2018-08-16T08:24:47.014Z,45.88
2018-08-16T08:25:47.260Z,46.27
2018-08-16T08:26:47.410Z,46.17
2018-08-16T08:27:47.623Z,46.17
2018-08-16T08:28:47.801Z,45.39
2018-08-16T08:29:48.006Z,46.08
2018-08-16T08:30:48.226Z,45.00
2018-08-16T08:31:48.537Z,45.76
2018-08-16T08:32:48.618Z,46.00
2018-08-16T08:33:48.692Z,45.20
2018-08-16T08:34:48.868Z,45.10
2018-08-16T08:35:49.091Z,45.12
2018-08-16T08:36:49.366Z,45.15
2018-08-16T08:37:49.446Z,45.12
2018-08-16T08:38:49.780Z,45.92
2018-08-16T08:39:50.042Z,44.37
2018-08-16T08:40:52.065Z,44.38
2018-08-16T08:41:51.817Z,43.43
2018-08-16T08:42:50.226Z,42.85
2018-08-16T08:43:50.591Z,42.85
2018-08-16T08:44:50.625Z,42.77
2018-08-16T08:45:51.013Z,43.04
2018-08-16T08:46:51.112Z,42.58
2018-08-16T08:47:51.326Z,42.48
2018-08-16T08:48:51.481Z,41.99
2018-08-16T08:49:51.650Z,41.35
2018-08-16T08:50:52.009Z,42.61
2018-08-16T08:51:52.063Z,41.62
2018-08-16T08:52:52.186Z,41.25
2018-08-16T08:53:52.497Z,41.23
2018-08-16T08:54:52.517Z,41.25
2018-08-16T08:55:53.258Z,41.05
2018-08-16T08:56:52.924Z,40.47
2018-08-16T08:57:53.072Z,39.90
2018-08-16T08:58:53.228Z,39.23
2018-08-16T08:59:53.495Z,38.86
2018-08-16T09:00:53.665Z,37.79
2018-08-16T09:01:53.814Z,38.08
2018-08-16T09:02:53.887Z,38.47
2018-08-16T09:03:54.056Z,38.37
2018-08-16T09:04:54.205Z,38.96
2018-08-16T09:05:54.468Z,40.01
2018-08-16T09:06:54.590Z,39.31
2018-08-16T09:07:54.885Z,39.29
2018-08-16T09:08:55.024Z,38.63
2018-08-16T09:09:55.270Z,38.73
2018-08-16T09:10:55.377Z,38.84
2018-08-16T09:11:55.657Z,38.92
2018-08-16T09:12:55.769Z,39.51
2018-08-16T09:13:55.977Z,38.73
2018-08-16T09:14:56.107Z,39.20
2018-08-16T09:15:56.328Z,40.16
2018-08-16T09:16:56.485Z,39.92
2018-08-16T09:17:56.550Z,41.44
2018-08-16T09:18:56.738Z,41.85
2018-08-16T09:19:57.074Z,42.14
2018-08-16T09:20:57.098Z,41.46
2018-08-16T09:21:57.284Z,42.63
2018-08-16T09:22:57.403Z,42.14
2018-08-16T09:23:57.687Z,42.75
2018-08-16T09:24:57.872Z,41.38
2018-08-16T09:25:58.032Z,41.97
2018-08-16T09:26:58.124Z,42.65
2018-08-16T09:27:58.351Z,41.99
2018-08-16T09:28:58.544Z,42.58
2018-08-16T09:29:58.631Z,41.13
2018-08-16T09:30:58.901Z,42.50
2018-08-16T09:31:59.091Z,39.94
2018-08-16T09:32:59.323Z,42.29
2018-08-16T09:33:59.402Z,41.60
2018-08-16T09:34:59.578Z,41.31
2018-08-16T09:35:59.824Z,42.38
2018-08-16T09:36:59.901Z,41.21
2018-08-16T09:38:00.128Z,41.46
2018-08-16T09:39:00.306Z,43.73
2018-08-16T09:40:00.434Z,42.24
2018-08-16T09:41:00.725Z,42.05
2018-08-16T09:42:00.804Z,42.34
2018-08-16T09:43:00.956Z,42.14
2018-08-16T09:44:01.133Z,43.04
2018-08-16T09:45:01.427Z,42.69
2018-08-16T09:46:01.611Z,41.62
2018-08-16T09:47:01.810Z,41.64
2018-08-16T09:48:01.918Z,41.07
2018-08-16T09:49:02.159Z,40.19
2018-08-16T09:50:02.285Z,39.62
2018-08-16T09:51:02.437Z,39.15
2018-08-16T09:52:02.592Z,38.37
2018-08-16T09:53:02.780Z,39.27
2018-08-16T09:54:03.011Z,38.21
2018-08-16T09:55:03.055Z,38.04
2018-08-16T09:56:03.320Z,36.49
2018-08-16T09:57:03.459Z,36.13
2018-08-16T09:58:03.672Z,35.24
2018-08-16T09:59:03.950Z,34.95
2018-08-16T10:00:04.030Z,35.46
2018-08-16T10:01:04.170Z,35.26
2018-08-16T10:02:04.430Z,34.08
2018-08-16T10:03:04.582Z,34.06
2018-08-16T10:04:04.737Z,33.98
2018-08-16T10:05:04.941Z,33.79
2018-08-16T10:06:05.121Z,34.38
2018-08-16T10:07:05.918Z,34.28
2018-08-16T10:08:05.397Z,34.47
2018-08-16T10:09:05.628Z,34.97
2018-08-16T10:10:05.812Z,34.56
2018-08-16T10:11:05.968Z,35.55
2018-08-16T10:12:06.097Z,35.06
2018-08-16T10:13:06.320Z,34.34
2018-08-16T10:14:06.558Z,33.95
2018-08-16T10:15:06.690Z,35.42
2018-08-16T10:16:06.964Z,34.93
2018-08-16T10:17:07.014Z,34.97
2018-08-16T10:18:07.234Z,33.79
2018-08-16T10:19:07.320Z,32.74
2018-08-16T10:20:07.587Z,33.72
2018-08-16T10:21:07.682Z,32.45
2018-08-16T10:22:07.871Z,32.08
2018-08-16T10:23:08.128Z,32.59
2018-08-16T10:24:08.470Z,30.82
2018-08-16T10:25:08.609Z,32.29
2018-08-16T10:26:08.711Z,32.54
2018-08-16T10:27:08.996Z,31.67
2018-08-16T10:28:09.035Z,31.49
2018-08-16T10:29:09.209Z,31.69
2018-08-16T10:30:09.423Z,31.80
2018-08-16T10:31:09.645Z,32.20
2018-08-16T10:32:09.738Z,31.51
2018-08-16T10:33:10.098Z,32.48
2018-08-16T10:34:10.249Z,32.05
2018-08-16T10:35:10.410Z,31.46
2018-08-16T10:36:10.498Z,32.18
2018-08-16T10:37:10.881Z,31.98
2018-08-16T10:38:10.958Z,31.29
2018-08-16T10:39:11.191Z,32.56
2018-08-16T10:40:11.414Z,32.93
2018-08-16T10:41:11.424Z,32.56
2018-08-16T10:42:11.650Z,32.64
2018-08-16T10:43:11.852Z,31.85
2018-08-16T10:44:12.137Z,32.34
2018-08-16T10:45:12.188Z,32.14
2018-08-16T10:46:12.391Z,32.53
2018-08-16T10:47:12.502Z,32.92
2018-08-16T10:48:12.776Z,33.62
2018-08-16T10:49:12.984Z,31.97
2018-08-16T10:50:13.152Z,32.38
2018-08-16T10:51:13.280Z,31.18
2018-08-16T10:52:13.426Z,31.00
2018-08-16T10:53:13.692Z,31.01
2018-08-16T10:54:13.824Z,30.51
2018-08-16T10:55:13.920Z,31.01
2018-08-16T10:56:14.132Z,31.10
2018-08-16T10:57:14.388Z,30.43
2018-08-16T10:58:14.612Z,29.63
2018-08-16T10:59:14.735Z,30.03
2018-08-16T11:00:15.043Z,29.83
2018-08-16T11:01:15.045Z,29.55
2018-08-16T11:02:15.233Z,30.06
2018-08-16T11:03:15.344Z,29.65
2018-08-16T11:04:15.629Z,30.13
2018-08-16T11:05:15.855Z,30.73
2018-08-16T11:06:15.948Z,30.83
2018-08-16T11:07:16.281Z,29.34
2018-08-16T11:08:16.373Z,29.83
2018-08-16T11:09:17.303Z,29.75
2018-08-16T11:10:17.007Z,30.62
2018-08-16T11:11:16.912Z,32.00
2018-08-16T11:12:17.085Z,29.93
2018-08-16T11:13:17.204Z,30.21
2018-08-16T11:14:17.442Z,30.52
2018-08-16T11:15:17.676Z,30.73
2018-08-16T11:16:18.425Z,29.76
2018-08-16T11:17:18.096Z,29.58
2018-08-16T11:18:18.313Z,28.69
2018-08-16T11:19:18.459Z,27.82
2018-08-16T11:20:18.635Z,27.83
2018-08-16T11:21:18.898Z,27.75
2018-08-16T11:22:18.960Z,28.92
2018-08-16T11:23:19.087Z,28.62
2018-08-16T11:24:19.357Z,28.41
2018-08-16T11:25:19.485Z,28.91
2018-08-16T11:26:19.672Z,27.82
2018-08-16T11:27:19.813Z,27.52
2018-08-16T11:28:20.053Z,27.83
2018-08-16T11:29:20.175Z,27.56
2018-08-16T11:30:20.410Z,27.96
2018-08-16T11:31:20.526Z,27.56
2018-08-16T11:32:20.769Z,27.55
2018-08-16T11:33:21.398Z,27.93
2018-08-16T11:34:21.532Z,27.72
2018-08-16T11:35:21.966Z,27.52
2018-08-16T11:36:22.337Z,27.45
2018-08-16T11:37:22.139Z,27.84
2018-08-16T11:38:21.846Z,27.94
2018-08-16T11:39:22.245Z,26.67
2018-08-16T11:40:22.332Z,26.39
2018-08-16T11:41:22.539Z,25.60
2018-08-16T11:42:22.677Z,26.21
2018-08-16T11:43:22.850Z,25.13
2018-08-16T11:44:23.254Z,25.13
2018-08-16T11:45:23.369Z,26.51
2018-08-16T11:46:23.522Z,26.20
2018-08-16T11:47:23.735Z,26.21
2018-08-16T11:48:24.055Z,26.80
2018-08-16T11:49:24.239Z,25.62
2018-08-16T11:50:24.358Z,26.32
2018-08-16T11:51:24.505Z,25.13
2018-08-16T11:52:24.762Z,25.04
2018-08-16T11:53:25.010Z,24.95
2018-08-16T11:54:24.970Z,24.95
2018-08-16T11:55:25.337Z,25.14
2018-08-16T11:56:25.361Z,25.14
2018-08-16T11:57:29.702Z,25.42
2018-08-16T11:58:26.315Z,25.91
2018-08-16T11:59:26.270Z,25.71
2018-08-16T12:00:27.404Z,25.72
2018-08-16T12:01:26.472Z,26.20
2018-08-16T12:02:26.456Z,26.60
2018-08-16T12:03:28.106Z,25.81
2018-08-16T12:04:27.118Z,26.39
2018-08-16T12:05:27.443Z,27.00
2018-08-16T12:06:27.523Z,26.70
2018-08-16T12:07:27.464Z,25.81
2018-08-16T12:08:27.612Z,26.50
2018-08-16T12:09:28.590Z,26.21
2018-08-16T12:10:28.039Z,25.34
2018-08-16T12:11:28.960Z,26.14
2018-08-16T12:12:28.467Z,23.78
2018-08-16T12:13:28.657Z,24.15
2018-08-16T12:14:28.892Z,24.93
2018-08-16T12:15:29.045Z,24.92
2018-08-16T12:16:29.141Z,25.13
2018-08-16T12:17:29.827Z,24.45
2018-08-16T12:18:31.281Z,24.83
2018-08-16T12:19:50.578Z,24.24
2018-08-16T12:20:41.355Z,25.14
2018-08-16T12:21:45.098Z,25.16
2018-08-16T12:23:37.326Z,23.67
2018-08-16T12:27:34.856Z,23.85
2018-08-16T12:28:08.855Z,24.07
2018-08-16T12:34:46.198Z,23.46
2018-08-16T12:40:02.119Z,23.78
2018-08-16T12:41:38.256Z,23.19
2018-08-16T12:43:48.641Z,23.10
2018-08-16T12:45:26.038Z,24.37
2018-08-16T12:46:30.411Z,23.18
2018-08-16T12:47:27.519Z,24.85
2018-08-16T12:48:27.440Z,24.24
2018-08-16T12:49:32.142Z,24.35
2018-08-16T12:50:38.794Z,24.84
2018-08-16T12:51:40.611Z,24.84
2018-08-16T12:53:54.624Z,24.35
2018-08-16T12:59:16.119Z,23.27
2018-08-16T13:00:04.798Z,23.07
2018-08-16T13:01:27.627Z,22.96
2018-08-16T13:03:12.141Z,22.89
2018-08-16T13:04:02.970Z,22.89
2018-08-16T13:06:39.601Z,23.07
2018-08-16T13:10:12.311Z,23.11
2018-08-16T13:12:13.368Z,23.30
2018-08-16T13:13:11.989Z,22.71
2018-08-16T13:14:09.350Z,23.12
2018-08-16T13:15:10.279Z,23.23
2018-08-16T13:21:13.259Z,21.74
2018-08-16T13:23:21.133Z,22.06
2018-08-16T13:24:59.470Z,21.06
2018-08-16T13:26:26.555Z,21.06
2018-08-16T13:27:08.222Z,21.15
2018-08-16T13:27:50.215Z,20.97
2018-08-16T13:28:50.698Z,20.47
2018-08-16T13:29:48.579Z,21.35
2018-08-16T13:30:47.574Z,21.94
2018-08-16T13:31:48.412Z,21.14
2018-08-16T13:32:47.912Z,20.86
2018-08-16T13:33:48.195Z,21.65
2018-08-16T13:34:48.288Z,21.14
2018-08-16T13:35:48.561Z,21.84
2018-08-16T13:36:48.913Z,21.44
2018-08-16T13:37:48.963Z,21.85
2018-08-16T13:38:48.899Z,22.03
2018-08-16T13:39:50.079Z,21.44
2018-08-16T13:40:50.144Z,21.65
2018-08-16T13:41:50.968Z,21.91
2018-08-16T13:42:50.556Z,22.20
2018-08-16T13:44:00.846Z,23.11
2018-08-16T13:44:52.356Z,22.03
2018-08-16T13:45:51.137Z,21.63
2018-08-16T13:46:57.972Z,20.84
2018-08-16T13:47:51.338Z,20.76
2018-08-16T13:48:51.545Z,20.65
2018-08-16T13:49:54.629Z,20.64
2018-08-16T13:50:54.841Z,21.52
2018-08-16T13:51:52.570Z,21.63
2018-08-16T13:52:54.236Z,21.13
2018-08-16T13:53:57.640Z,21.33
2018-08-16T13:54:53.487Z,20.65
2018-08-16T13:55:52.427Z,21.64
2018-08-16T13:56:56.491Z,21.63
2018-08-16T14:07:23.658Z,20.95
2018-08-16T14:08:58.446Z,21.54
2018-08-16T14:31:21.547Z,21.91
2018-08-16T14:36:22.282Z,21.64
2018-08-16T14:36:50.206Z,20.97
2018-08-16T14:40:34.664Z,20.06
2018-08-16T14:42:15.642Z,20.57
2018-08-16T14:45:55.102Z,21.61
2018-08-16T14:52:14.306Z,22.78
2018-08-16T14:53:11.976Z,22.39
2018-08-16T14:54:12.648Z,22.40
2018-08-16T14:55:15.644Z,21.51
2018-08-16T14:56:11.728Z,21.51
2018-08-16T14:57:10.030Z,22.00
2018-08-16T14:58:09.925Z,22.49
2018-08-16T14:59:09.997Z,21.70
2018-08-16T15:00:10.374Z,22.11
2018-08-16T15:01:10.673Z,22.00
2018-08-16T15:02:10.904Z,22.67
2018-08-16T15:03:10.864Z,22.47
2018-08-16T15:04:11.206Z,23.15
2018-08-16T15:05:11.029Z,22.45
2018-08-16T15:06:11.150Z,23.15
2018-08-16T15:07:11.427Z,23.15
2018-08-16T15:08:11.855Z,23.05
2018-08-16T15:09:11.623Z,22.56
2018-08-16T15:10:12.065Z,22.47
2018-08-16T15:11:12.544Z,22.78
2018-08-16T15:12:12.463Z,22.47
2018-08-16T15:13:12.735Z,22.56
2018-08-16T15:14:12.932Z,22.56
2018-08-16T15:15:13.045Z,22.67
2018-08-16T15:16:13.061Z,22.95
2018-08-16T15:17:13.558Z,23.25
2018-08-16T15:18:13.533Z,23.44
2018-08-16T15:19:13.733Z,23.03
2018-08-16T15:20:13.944Z,23.13
2018-08-16T15:21:14.372Z,23.81
2018-08-16T15:22:14.120Z,23.92
2018-08-16T15:23:14.936Z,23.24
2018-08-16T15:24:15.467Z,22.64
2018-08-16T15:25:14.733Z,22.64
2018-08-16T15:26:14.970Z,23.14
2018-08-16T15:27:15.211Z,23.33
2018-08-16T15:28:15.275Z,23.33
2018-08-16T15:29:15.428Z,23.14
2018-08-16T15:30:15.632Z,23.44
2018-08-16T15:31:15.887Z,23.75
2018-08-16T15:32:16.334Z,22.96
2018-08-16T15:33:16.532Z,22.77
2018-08-16T15:34:16.580Z,21.78
2018-08-16T15:35:17.149Z,22.37
2018-08-16T15:36:16.882Z,21.88
2018-08-16T15:37:17.506Z,22.45
2018-08-16T15:38:17.404Z,22.67
2018-08-16T15:39:17.541Z,22.38
2018-08-16T15:40:17.646Z,21.59
2018-08-16T15:41:18.197Z,22.67
2018-08-16T15:42:18.284Z,22.48
2018-08-16T15:43:18.824Z,21.88
2018-08-16T15:44:18.845Z,22.15
2018-08-16T15:45:18.558Z,22.56
2018-08-16T15:46:18.975Z,22.56
2018-08-16T15:47:22.214Z,22.63
2018-08-16T15:48:19.572Z,23.52
2018-08-16T15:49:19.321Z,24.11
2018-08-16T15:50:19.661Z,23.22
2018-08-16T15:51:21.975Z,23.13
2018-08-16T15:52:21.736Z,23.22
2018-08-16T15:53:41.055Z,23.60
2018-08-16T15:59:21.971Z,26.79
2018-08-16T16:11:53.716Z,28.47
2018-08-16T16:14:41.790Z,29.14
2018-08-16T16:27:13.289Z,32.63
2018-08-16T16:27:36.827Z,33.29
2018-08-16T16:28:37.649Z,32.43
2018-08-16T16:30:13.600Z,32.61
2018-08-16T17:00:01.911Z,35.11
2018-08-16T17:01:18.962Z,35.50
2018-08-16T17:01:47.796Z,35.11
2018-08-16T17:04:25.299Z,33.94
2018-08-16T17:07:53.115Z,34.60
2018-08-16T17:08:53.001Z,34.31
2018-08-16T17:09:50.554Z,35.27
2018-08-16T17:11:47.702Z,35.75
2018-08-16T17:12:48.494Z,36.34
2018-08-16T17:19:24.856Z,38.09
2018-08-16T17:21:12.917Z,39.26
2018-08-16T17:21:25.111Z,39.65
2018-08-16T17:26:10.856Z,40.14
2018-08-16T17:27:20.533Z,42.68
2018-08-16T17:32:56.688Z,40.31
2018-08-16T17:35:05.261Z,40.11
2018-08-16T17:36:00.692Z,44.19
2018-08-16T17:36:54.208Z,45.17
2018-08-16T17:37:55.709Z,46.04
2018-08-16T17:38:55.499Z,45.73
2018-08-16T17:40:03.201Z,45.64
2018-08-16T17:41:02.147Z,44.95
2018-08-16T17:41:54.952Z,43.88
2018-08-16T17:44:57.212Z,41.63
2018-08-16T17:45:57.041Z,42.61
2018-08-16T17:47:55.336Z,42.10
2018-08-16T17:48:53.956Z,42.22
2018-08-16T17:49:53.707Z,41.42
2018-08-16T17:50:53.419Z,42.12
2018-08-16T17:51:53.944Z,42.69
2018-08-16T17:52:54.051Z,42.98
2018-08-16T17:53:54.431Z,43.08
2018-08-16T17:54:54.206Z,45.61
2018-08-16T17:55:54.658Z,45.90
2018-08-16T17:56:54.804Z,45.32
2018-08-16T17:57:55.441Z,46.10
2018-08-16T17:58:54.779Z,45.22
2018-08-16T17:59:55.048Z,44.52
2018-08-16T18:00:55.600Z,44.03
2018-08-16T18:01:55.367Z,45.00
2018-08-16T18:02:55.871Z,45.88
2018-08-16T18:03:55.983Z,45.59
2018-08-16T18:04:56.346Z,45.59
2018-08-16T18:05:56.079Z,44.62
2018-08-16T18:06:56.460Z,43.62
2018-08-16T18:07:56.538Z,43.52
2018-08-16T18:08:56.745Z,43.52
2018-08-16T18:09:56.935Z,43.33
2018-08-16T18:10:57.308Z,43.62
2018-08-16T18:11:57.479Z,43.33
2018-08-16T18:12:57.695Z,45.08
2018-08-16T18:13:57.860Z,45.86
2018-08-16T18:14:58.010Z,46.15
2018-08-16T18:15:58.071Z,49.34
2018-08-16T18:16:58.795Z,47.98
2018-08-16T18:17:59.284Z,45.94
2018-08-16T18:19:00.754Z,45.54
2018-08-16T18:20:04.994Z,44.94
2018-08-16T18:20:59.585Z,45.81
2018-08-16T18:21:59.559Z,46.88
